Airfield :
LOGIN :

Register | Disclaimer

   EN    FR    IT 

 










Legend :    VFR   Marginal VFR   IFR   Intensive IFR   Very Intensive IFR
Visi :
Ceiling :
>= 8 km
>= 3000ft
5 to 8 km
1000 to 3000 ft
1500m to 5 km
500 to 1000 ft
800 to 1500m
200 to 500 ft
< 800m
< 200 ft
Symbols :   Thunderstorms  Fog  Heavy snow  Heavy precipitations  Wind > 20 kt
SIGMETs :     Misc.  Thunderstorms  Icing  Turbulence  Mountain Waves  Volcanic Ashes






- Airport Elevation : 614 ft
- IATA code : CRL


EBCI - Charleroi

CURRENT METAR :
  • 060550Z 17011KT CAVOK 12/00 Q1017 NOSIG

EXPIRED METARs :
  • 060520Z AUTO 17010KT CAVOK 11/00 Q1016
  • 060450Z AUTO 17010KT CAVOK 12/M00 Q1016
  • 060420Z AUTO 17008KT CAVOK 12/M00 Q1016
  • 060350Z AUTO 17006KT CAVOK 12/00 Q1016

TAF TAF EBCI
Valid from the 06 at 06:00 until the 07 at 12:00 UTC


060510Z 0606/0712 20011KT CAVOK
BECMG 0616/0618 26007KT SCT006 BKN011
BECMG 0621/0624 2000 BR BKN004
PROB40
TEMPO 0702/0707 0400 FG BKN001
BECMG 0707/0710 9999 NSW BKN018



MET'MAP, your aeronautical weather chart ! - Copyright ORBIFLY December 2007 - Disclaimer

ORBIFLY MET'MAP TEAM :

Programming & Development : Alexandra Zaïnal
Concept & original design : Baudouin d'Aumeries
Assistance for programming : Marc-Olivier Méhu
Technical & hardware support : Manuel Goepfert

Contact : metmap@orbifly.com




SOURCES & CREDITS :

   NOAA